sensor_id;sensor_type;location;lat;lon;timestamp;P1;durP1;ratioP1;P2;durP2;ratioP2
45296;SDS011;31040;51.622;10.420;2022-07-23T00:00:43;8.35;;;5.43;;
45296;SDS011;31040;51.622;10.420;2022-07-23T00:03:11;5.85;;;5.38;;
45296;SDS011;31040;51.622;10.420;2022-07-23T00:05:38;7.95;;;6.13;;
45296;SDS011;31040;51.622;10.420;2022-07-23T00:08:06;7.43;;;6.70;;
45296;SDS011;31040;51.622;10.420;2022-07-23T00:10:37;6.53;;;5.93;;
45296;SDS011;31040;51.622;10.420;2022-07-23T00:13:07;6.65;;;5.97;;
45296;SDS011;31040;51.622;10.420;2022-07-23T00:15:35;7.78;;;6.97;;
45296;SDS011;31040;51.622;10.420;2022-07-23T00:18:02;7.38;;;6.68;;
45296;SDS011;31040;51.622;10.420;2022-07-23T00:20:30;7.45;;;6.80;;
45296;SDS011;31040;51.622;10.420;2022-07-23T00:22:57;7.00;;;6.40;;
45296;SDS011;31040;51.622;10.420;2022-07-23T00:25:26;7.35;;;6.43;;
45296;SDS011;31040;51.622;10.420;2022-07-23T00:27:57;7.55;;;6.85;;
45296;SDS011;31040;51.622;10.420;2022-07-23T00:30:24;8.98;;;7.07;;
45296;SDS011;31040;51.622;10.420;2022-07-23T00:32:53;8.77;;;6.95;;
45296;SDS011;31040;51.622;10.420;2022-07-23T00:35:23;8.45;;;7.07;;
45296;SDS011;31040;51.622;10.420;2022-07-23T00:38:27;7.90;;;7.00;;
45296;SDS011;31040;51.622;10.420;2022-07-23T00:41:04;9.32;;;8.20;;
45296;SDS011;31040;51.622;10.420;2022-07-23T00:43:44;8.18;;;7.38;;
45296;SDS011;31040;51.622;10.420;2022-07-23T00:46:11;8.45;;;7.28;;
45296;SDS011;31040;51.622;10.420;2022-07-23T00:48:39;7.70;;;6.90;;
45296;SDS011;31040;51.622;10.420;2022-07-23T00:51:07;7.95;;;7.15;;
45296;SDS011;31040;51.622;10.420;2022-07-23T00:53:34;7.78;;;6.82;;
45296;SDS011;31040;51.622;10.420;2022-07-23T00:56:02;7.13;;;6.43;;
45296;SDS011;31040;51.622;10.420;2022-07-23T00:58:29;7.18;;;6.38;;
45296;SDS011;31040;51.622;10.420;2022-07-23T01:00:57;8.00;;;7.18;;
45296;SDS011;31040;51.622;10.420;2022-07-23T01:03:24;6.43;;;5.82;;
45296;SDS011;31040;51.622;10.420;2022-07-23T01:05:53;7.55;;;6.85;;
45296;SDS011;31040;51.622;10.420;2022-07-23T01:08:20;7.18;;;6.47;;
45296;SDS011;31040;51.622;10.420;2022-07-23T01:10:48;7.78;;;6.95;;
45296;SDS011;31040;51.622;10.420;2022-07-23T01:13:16;7.40;;;6.70;;
45296;SDS011;31040;51.622;10.420;2022-07-23T01:15:43;7.68;;;6.38;;
45296;SDS011;31040;51.622;10.420;2022-07-23T01:18:11;8.68;;;7.25;;
45296;SDS011;31040;51.622;10.420;2022-07-23T01:20:39;8.70;;;7.35;;
45296;SDS011;31040;51.622;10.420;2022-07-23T01:23:07;7.90;;;6.95;;
45296;SDS011;31040;51.622;10.420;2022-07-23T01:25:35;10.10;;;8.07;;
45296;SDS011;31040;51.622;10.420;2022-07-23T01:28:02;7.75;;;6.72;;
45296;SDS011;31040;51.622;10.420;2022-07-23T01:30:30;8.10;;;7.20;;
45296;SDS011;31040;51.622;10.420;2022-07-23T01:32:58;8.07;;;7.28;;
45296;SDS011;31040;51.622;10.420;2022-07-23T01:35:25;8.98;;;7.93;;
45296;SDS011;31040;51.622;10.420;2022-07-23T01:37:53;8.85;;;7.47;;
45296;SDS011;31040;51.622;10.420;2022-07-23T01:40:20;9.73;;;7.95;;
45296;SDS011;31040;51.622;10.420;2022-07-23T01:42:49;8.23;;;7.20;;
45296;SDS011;31040;51.622;10.420;2022-07-23T01:45:17;9.02;;;7.80;;
45296;SDS011;31040;51.622;10.420;2022-07-23T01:47:44;7.78;;;6.28;;
45296;SDS011;31040;51.622;10.420;2022-07-23T01:50:12;7.68;;;6.55;;
45296;SDS011;31040;51.622;10.420;2022-07-23T01:52:40;7.45;;;6.65;;
45296;SDS011;31040;51.622;10.420;2022-07-23T01:55:08;6.88;;;6.13;;
45296;SDS011;31040;51.622;10.420;2022-07-23T01:57:44;7.30;;;6.60;;
45296;SDS011;31040;51.622;10.420;2022-07-23T02:00:15;7.95;;;6.82;;
45296;SDS011;31040;51.622;10.420;2022-07-23T02:02:43;8.77;;;6.68;;
45296;SDS011;31040;51.622;10.420;2022-07-23T02:05:10;7.50;;;6.70;;
45296;SDS011;31040;51.622;10.420;2022-07-23T02:07:38;8.25;;;7.43;;
45296;SDS011;31040;51.622;10.420;2022-07-23T02:10:05;8.32;;;7.47;;
45296;SDS011;31040;51.622;10.420;2022-07-23T02:12:33;8.60;;;7.80;;
45296;SDS011;31040;51.622;10.420;2022-07-23T02:15:00;8.75;;;7.70;;
45296;SDS011;31040;51.622;10.420;2022-07-23T02:17:28;8.90;;;7.60;;
45296;SDS011;31040;51.622;10.420;2022-07-23T02:19:55;8.15;;;7.35;;
45296;SDS011;31040;51.622;10.420;2022-07-23T02:22:23;10.45;;;7.65;;
45296;SDS011;31040;51.622;10.420;2022-07-23T02:24:50;8.77;;;7.57;;
45296;SDS011;31040;51.622;10.420;2022-07-23T02:27:18;10.05;;;8.18;;
45296;SDS011;31040;51.622;10.420;2022-07-23T02:29:45;9.77;;;8.02;;
45296;SDS011;31040;51.622;10.420;2022-07-23T02:32:13;7.78;;;7.07;;
45296;SDS011;31040;51.622;10.420;2022-07-23T02:34:41;8.68;;;7.78;;
45296;SDS011;31040;51.622;10.420;2022-07-23T02:37:08;8.68;;;7.78;;
45296;SDS011;31040;51.622;10.420;2022-07-23T02:39:36;8.60;;;7.80;;
45296;SDS011;31040;51.622;10.420;2022-07-23T02:42:03;7.40;;;6.70;;
45296;SDS011;31040;51.622;10.420;2022-07-23T02:44:31;10.63;;;8.25;;
45296;SDS011;31040;51.622;10.420;2022-07-23T02:46:58;10.07;;;8.57;;
45296;SDS011;31040;51.622;10.420;2022-07-23T02:49:26;9.73;;;8.65;;
45296;SDS011;31040;51.622;10.420;2022-07-23T02:51:53;10.98;;;8.60;;
45296;SDS011;31040;51.622;10.420;2022-07-23T02:54:21;10.38;;;8.85;;
45296;SDS011;31040;51.622;10.420;2022-07-23T02:56:48;10.25;;;8.80;;
45296;SDS011;31040;51.622;10.420;2022-07-23T02:59:19;10.95;;;8.75;;
45296;SDS011;31040;51.622;10.420;2022-07-23T03:01:47;9.88;;;8.88;;
45296;SDS011;31040;51.622;10.420;2022-07-23T03:04:15;10.13;;;9.13;;
45296;SDS011;31040;51.622;10.420;2022-07-23T03:06:42;10.65;;;9.60;;
45296;SDS011;31040;51.622;10.420;2022-07-23T03:09:10;9.88;;;8.88;;
45296;SDS011;31040;51.622;10.420;2022-07-23T03:11:37;10.10;;;9.05;;
45296;SDS011;31040;51.622;10.420;2022-07-23T03:14:05;13.85;;;9.38;;
45296;SDS011;31040;51.622;10.420;2022-07-23T03:16:33;11.95;;;9.55;;
45296;SDS011;31040;51.622;10.420;2022-07-23T03:19:01;10.07;;;8.93;;
45296;SDS011;31040;51.622;10.420;2022-07-23T03:21:31;9.90;;;8.85;;
45296;SDS011;31040;51.622;10.420;2022-07-23T03:23:59;10.82;;;8.85;;
45296;SDS011;31040;51.622;10.420;2022-07-23T03:26:27;10.18;;;9.02;;
45296;SDS011;31040;51.622;10.420;2022-07-23T03:28:54;12.65;;;9.27;;
45296;SDS011;31040;51.622;10.420;2022-07-23T03:31:21;10.05;;;9.15;;
45296;SDS011;31040;51.622;10.420;2022-07-23T03:33:49;11.88;;;9.55;;
45296;SDS011;31040;51.622;10.420;2022-07-23T03:36:16;9.75;;;8.38;;
45296;SDS011;31040;51.622;10.420;2022-07-23T03:38:47;10.52;;;9.27;;
45296;SDS011;31040;51.622;10.420;2022-07-23T03:41:14;12.15;;;8.85;;
45296;SDS011;31040;51.622;10.420;2022-07-23T03:43:42;11.35;;;9.05;;
45296;SDS011;31040;51.622;10.420;2022-07-23T03:46:10;10.68;;;9.57;;
45296;SDS011;31040;51.622;10.420;2022-07-23T03:48:37;8.95;;;8.15;;
45296;SDS011;31040;51.622;10.420;2022-07-23T03:51:05;9.68;;;8.68;;
45296;SDS011;31040;51.622;10.420;2022-07-23T03:53:34;11.13;;;8.65;;
45296;SDS011;31040;51.622;10.420;2022-07-23T03:56:01;9.93;;;8.93;;
45296;SDS011;31040;51.622;10.420;2022-07-23T03:58:29;9.65;;;8.70;;
45296;SDS011;31040;51.622;10.420;2022-07-23T04:00:56;9.68;;;8.68;;
45296;SDS011;31040;51.622;10.420;2022-07-23T04:03:24;10.90;;;9.63;;
45296;SDS011;31040;51.622;10.420;2022-07-23T04:05:52;12.68;;;9.63;;
45296;SDS011;31040;51.622;10.420;2022-07-23T04:08:19;10.55;;;9.02;;
45296;SDS011;31040;51.622;10.420;2022-07-23T04:10:46;10.50;;;9.48;;
45296;SDS011;31040;51.622;10.420;2022-07-23T04:13:14;9.70;;;8.75;;
45296;SDS011;31040;51.622;10.420;2022-07-23T04:15:41;10.18;;;8.82;;
45296;SDS011;31040;51.622;10.420;2022-07-23T04:18:09;11.95;;;9.98;;
45296;SDS011;31040;51.622;10.420;2022-07-23T04:20:37;12.10;;;10.35;;
45296;SDS011;31040;51.622;10.420;2022-07-23T04:23:06;15.35;;;12.05;;
45296;SDS011;31040;51.622;10.420;2022-07-23T04:25:33;14.05;;;11.68;;
45296;SDS011;31040;51.622;10.420;2022-07-23T04:28:01;14.05;;;11.65;;
45296;SDS011;31040;51.622;10.420;2022-07-23T04:30:29;13.55;;;11.20;;
45296;SDS011;31040;51.622;10.420;2022-07-23T04:32:56;13.70;;;11.25;;
45296;SDS011;31040;51.622;10.420;2022-07-23T04:35:27;14.88;;;11.65;;
45296;SDS011;31040;51.622;10.420;2022-07-23T04:37:55;13.15;;;11.63;;
45296;SDS011;31040;51.622;10.420;2022-07-23T04:40:23;14.02;;;11.95;;
45296;SDS011;31040;51.622;10.420;2022-07-23T04:42:50;13.63;;;12.15;;
45296;SDS011;31040;51.622;10.420;2022-07-23T04:45:18;17.92;;;13.15;;
45296;SDS011;31040;51.622;10.420;2022-07-23T04:47:45;19.35;;;13.27;;
45296;SDS011;31040;51.622;10.420;2022-07-23T04:50:13;18.15;;;13.55;;
45296;SDS011;31040;51.622;10.420;2022-07-23T04:52:45;14.57;;;12.23;;
45296;SDS011;31040;51.622;10.420;2022-07-23T04:55:12;16.65;;;12.85;;
45296;SDS011;31040;51.622;10.420;2022-07-23T04:57:40;17.40;;;13.35;;
45296;SDS011;31040;51.622;10.420;2022-07-23T05:00:08;16.70;;;13.77;;
45296;SDS011;31040;51.622;10.420;2022-07-23T05:02:36;17.42;;;14.23;;
45296;SDS011;31040;51.622;10.420;2022-07-23T05:05:03;20.63;;;15.20;;
45296;SDS011;31040;51.622;10.420;2022-07-23T05:07:31;16.17;;;14.25;;
45296;SDS011;31040;51.622;10.420;2022-07-23T05:09:58;19.65;;;14.82;;
45296;SDS011;31040;51.622;10.420;2022-07-23T05:12:26;21.88;;;14.57;;
45296;SDS011;31040;51.622;10.420;2022-07-23T05:14:54;17.98;;;14.07;;
45296;SDS011;31040;51.622;10.420;2022-07-23T05:17:21;22.35;;;15.68;;
45296;SDS011;31040;51.622;10.420;2022-07-23T05:19:48;21.77;;;15.93;;
45296;SDS011;31040;51.622;10.420;2022-07-23T05:22:25;22.35;;;15.65;;
45296;SDS011;31040;51.622;10.420;2022-07-23T05:24:55;18.65;;;15.73;;
45296;SDS011;31040;51.622;10.420;2022-07-23T05:27:22;20.73;;;15.57;;
45296;SDS011;31040;51.622;10.420;2022-07-23T05:29:50;21.77;;;14.65;;
45296;SDS011;31040;51.622;10.420;2022-07-23T05:32:17;21.27;;;15.25;;
45296;SDS011;31040;51.622;10.420;2022-07-23T05:34:45;21.35;;;16.35;;
45296;SDS011;31040;51.622;10.420;2022-07-23T05:37:13;19.70;;;15.07;;
45296;SDS011;31040;51.622;10.420;2022-07-23T05:39:40;19.30;;;15.60;;
45296;SDS011;31040;51.622;10.420;2022-07-23T05:42:08;20.75;;;15.88;;
45296;SDS011;31040;51.622;10.420;2022-07-23T05:44:35;23.73;;;15.77;;
45296;SDS011;31040;51.622;10.420;2022-07-23T05:47:02;20.38;;;14.82;;
45296;SDS011;31040;51.622;10.420;2022-07-23T05:49:30;20.65;;;14.90;;
45296;SDS011;31040;51.622;10.420;2022-07-23T05:51:57;19.95;;;15.13;;
45296;SDS011;31040;51.622;10.420;2022-07-23T05:54:25;18.88;;;14.63;;
45296;SDS011;31040;51.622;10.420;2022-07-23T05:56:52;17.33;;;14.90;;
45296;SDS011;31040;51.622;10.420;2022-07-23T05:59:20;17.52;;;14.43;;
45296;SDS011;31040;51.622;10.420;2022-07-23T06:01:47;17.60;;;13.90;;
45296;SDS011;31040;51.622;10.420;2022-07-23T06:04:15;16.67;;;14.45;;
45296;SDS011;31040;51.622;10.420;2022-07-23T06:06:42;16.25;;;13.30;;
45296;SDS011;31040;51.622;10.420;2022-07-23T06:09:10;15.43;;;12.30;;
45296;SDS011;31040;51.622;10.420;2022-07-23T06:11:40;14.88;;;13.10;;
45296;SDS011;31040;51.622;10.420;2022-07-23T06:14:07;16.25;;;12.32;;
45296;SDS011;31040;51.622;10.420;2022-07-23T06:16:35;15.95;;;13.18;;
45296;SDS011;31040;51.622;10.420;2022-07-23T06:19:02;16.95;;;12.25;;
45296;SDS011;31040;51.622;10.420;2022-07-23T06:21:30;16.92;;;12.50;;
45296;SDS011;31040;51.622;10.420;2022-07-23T06:24:13;19.75;;;12.82;;
45296;SDS011;31040;51.622;10.420;2022-07-23T06:26:41;13.93;;;11.60;;
45296;SDS011;31040;51.622;10.420;2022-07-23T06:29:08;14.25;;;11.15;;
45296;SDS011;31040;51.622;10.420;2022-07-23T06:31:36;13.23;;;11.82;;
45296;SDS011;31040;51.622;10.420;2022-07-23T06:34:04;14.13;;;11.27;;
45296;SDS011;31040;51.622;10.420;2022-07-23T06:36:31;17.42;;;12.73;;
45296;SDS011;31040;51.622;10.420;2022-07-23T06:38:59;12.25;;;10.95;;
45296;SDS011;31040;51.622;10.420;2022-07-23T06:41:28;14.50;;;11.75;;
45296;SDS011;31040;51.622;10.420;2022-07-23T06:43:55;12.93;;;11.25;;
45296;SDS011;31040;51.622;10.420;2022-07-23T06:46:23;15.00;;;11.55;;
45296;SDS011;31040;51.622;10.420;2022-07-23T06:48:51;13.30;;;10.85;;
45296;SDS011;31040;51.622;10.420;2022-07-23T06:51:19;12.80;;;10.55;;
45296;SDS011;31040;51.622;10.420;2022-07-23T06:53:47;14.13;;;11.38;;
45296;SDS011;31040;51.622;10.420;2022-07-23T06:56:15;14.45;;;11.27;;
45296;SDS011;31040;51.622;10.420;2022-07-23T06:58:42;16.52;;;12.10;;
45296;SDS011;31040;51.622;10.420;2022-07-23T07:01:10;13.15;;;11.10;;
45296;SDS011;31040;51.622;10.420;2022-07-23T07:03:37;14.23;;;10.48;;
45296;SDS011;31040;51.622;10.420;2022-07-23T07:06:05;13.38;;;12.05;;
45296;SDS011;31040;51.622;10.420;2022-07-23T07:08:32;13.20;;;10.65;;
45296;SDS011;31040;51.622;10.420;2022-07-23T07:11:00;11.32;;;10.20;;
45296;SDS011;31040;51.622;10.420;2022-07-23T07:13:28;15.93;;;11.60;;
45296;SDS011;31040;51.622;10.420;2022-07-23T07:15:55;13.15;;;11.52;;
45296;SDS011;31040;51.622;10.420;2022-07-23T07:18:25;12.20;;;10.55;;
45296;SDS011;31040;51.622;10.420;2022-07-23T07:20:52;17.90;;;11.13;;
45296;SDS011;31040;51.622;10.420;2022-07-23T07:23:22;12.65;;;10.82;;
45296;SDS011;31040;51.622;10.420;2022-07-23T07:25:49;12.38;;;10.98;;
45296;SDS011;31040;51.622;10.420;2022-07-23T07:28:17;12.43;;;10.40;;
45296;SDS011;31040;51.622;10.420;2022-07-23T07:30:44;14.70;;;11.00;;
45296;SDS011;31040;51.622;10.420;2022-07-23T07:33:12;12.13;;;10.70;;
45296;SDS011;31040;51.622;10.420;2022-07-23T07:35:39;13.27;;;10.63;;
45296;SDS011;31040;51.622;10.420;2022-07-23T07:38:07;13.57;;;10.70;;
45296;SDS011;31040;51.622;10.420;2022-07-23T07:40:34;11.63;;;10.52;;
45296;SDS011;31040;51.622;10.420;2022-07-23T07:43:02;13.20;;;10.82;;
45296;SDS011;31040;51.622;10.420;2022-07-23T07:45:31;13.25;;;11.05;;
45296;SDS011;31040;51.622;10.420;2022-07-23T07:47:59;14.45;;;9.88;;
45296;SDS011;31040;51.622;10.420;2022-07-23T07:50:26;13.38;;;10.55;;
45296;SDS011;31040;51.622;10.420;2022-07-23T07:52:54;16.45;;;9.85;;
45296;SDS011;31040;51.622;10.420;2022-07-23T07:55:22;11.15;;;9.25;;
45296;SDS011;31040;51.622;10.420;2022-07-23T07:57:50;13.10;;;10.18;;
45296;SDS011;31040;51.622;10.420;2022-07-23T08:00:17;14.23;;;10.20;;
45296;SDS011;31040;51.622;10.420;2022-07-23T08:02:49;11.80;;;10.57;;
45296;SDS011;31040;51.622;10.420;2022-07-23T08:05:24;11.27;;;9.48;;
45296;SDS011;31040;51.622;10.420;2022-07-23T08:07:57;10.70;;;9.10;;
45296;SDS011;31040;51.622;10.420;2022-07-23T08:10:25;9.65;;;8.38;;
45296;SDS011;31040;51.622;10.420;2022-07-23T08:12:53;8.77;;;6.97;;
45296;SDS011;31040;51.622;10.420;2022-07-23T08:15:23;6.43;;;5.72;;
45296;SDS011;31040;51.622;10.420;2022-07-23T08:17:51;8.60;;;5.55;;
45296;SDS011;31040;51.622;10.420;2022-07-23T08:20:19;7.55;;;6.63;;
45296;SDS011;31040;51.622;10.420;2022-07-23T08:25:21;6.30;;;5.60;;
45296;SDS011;31040;51.622;10.420;2022-07-23T08:27:49;9.70;;;5.60;;
45296;SDS011;31040;51.622;10.420;2022-07-23T08:30:18;6.30;;;4.75;;
45296;SDS011;31040;51.622;10.420;2022-07-23T08:35:17;4.38;;;3.92;;
45296;SDS011;31040;51.622;10.420;2022-07-23T08:37:45;4.88;;;3.67;;
45296;SDS011;31040;51.622;10.420;2022-07-23T08:40:12;4.90;;;3.40;;
45296;SDS011;31040;51.622;10.420;2022-07-23T08:42:40;3.25;;;2.90;;
45296;SDS011;31040;51.622;10.420;2022-07-23T08:45:07;3.40;;;2.72;;
45296;SDS011;31040;51.622;10.420;2022-07-23T08:47:37;3.63;;;3.22;;
45296;SDS011;31040;51.622;10.420;2022-07-23T08:50:05;3.65;;;3.33;;
45296;SDS011;31040;51.622;10.420;2022-07-23T08:52:34;4.40;;;2.78;;
45296;SDS011;31040;51.622;10.420;2022-07-23T08:55:01;3.22;;;2.90;;
45296;SDS011;31040;51.622;10.420;2022-07-23T08:57:29;3.17;;;2.25;;
45296;SDS011;31040;51.622;10.420;2022-07-23T08:59:57;2.92;;;2.35;;
45296;SDS011;31040;51.622;10.420;2022-07-23T09:02:25;5.93;;;3.28;;
45296;SDS011;31040;51.622;10.420;2022-07-23T09:04:53;4.32;;;3.10;;
45296;SDS011;31040;51.622;10.420;2022-07-23T09:07:20;4.38;;;3.50;;
45296;SDS011;31040;51.622;10.420;2022-07-23T09:09:50;5.10;;;3.70;;
45296;SDS011;31040;51.622;10.420;2022-07-23T09:12:31;4.57;;;3.67;;
45296;SDS011;31040;51.622;10.420;2022-07-23T09:15:03;6.40;;;3.85;;
45296;SDS011;31040;51.622;10.420;2022-07-23T09:17:36;6.55;;;4.13;;
45296;SDS011;31040;51.622;10.420;2022-07-23T09:20:14;4.75;;;4.15;;
45296;SDS011;31040;51.622;10.420;2022-07-23T09:22:45;4.95;;;4.32;;
45296;SDS011;31040;51.622;10.420;2022-07-23T09:25:17;7.55;;;4.05;;
45296;SDS011;31040;51.622;10.420;2022-07-23T09:27:47;8.23;;;4.38;;
45296;SDS011;31040;51.622;10.420;2022-07-23T09:30:21;5.30;;;4.23;;
45296;SDS011;31040;51.622;10.420;2022-07-23T09:35:55;6.53;;;4.68;;
45296;SDS011;31040;51.622;10.420;2022-07-23T09:38:34;6.15;;;4.38;;
45296;SDS011;31040;51.622;10.420;2022-07-23T09:41:24;4.78;;;3.90;;
45296;SDS011;31040;51.622;10.420;2022-07-23T09:43:54;4.93;;;4.22;;
45296;SDS011;31040;51.622;10.420;2022-07-23T09:46:26;4.70;;;4.30;;
45296;SDS011;31040;51.622;10.420;2022-07-23T09:48:55;4.82;;;4.20;;
45296;SDS011;31040;51.622;10.420;2022-07-23T09:51:23;4.57;;;3.92;;
45296;SDS011;31040;51.622;10.420;2022-07-23T09:53:57;5.53;;;4.78;;
45296;SDS011;31040;51.622;10.420;2022-07-23T09:56:25;5.88;;;4.75;;
45296;SDS011;31040;51.622;10.420;2022-07-23T09:58:54;5.30;;;4.78;;
45296;SDS011;31040;51.622;10.420;2022-07-23T10:01:31;4.75;;;4.32;;
45296;SDS011;31040;51.622;10.420;2022-07-23T10:03:59;5.55;;;4.82;;
45296;SDS011;31040;51.622;10.420;2022-07-23T10:06:28;4.18;;;3.78;;
45296;SDS011;31040;51.622;10.420;2022-07-23T10:08:57;4.80;;;3.92;;
45296;SDS011;31040;51.622;10.420;2022-07-23T10:11:25;37.47;;;6.70;;
45296;SDS011;31040;51.622;10.420;2022-07-23T10:13:56;7.57;;;4.72;;
45296;SDS011;31040;51.622;10.420;2022-07-23T10:16:30;4.65;;;4.25;;
45296;SDS011;31040;51.622;10.420;2022-07-23T10:18:57;5.13;;;4.47;;
45296;SDS011;31040;51.622;10.420;2022-07-23T10:21:49;6.03;;;4.38;;
45296;SDS011;31040;51.622;10.420;2022-07-23T10:26:58;5.60;;;4.20;;
45296;SDS011;31040;51.622;10.420;2022-07-23T10:32:04;5.15;;;3.60;;
45296;SDS011;31040;51.622;10.420;2022-07-23T10:34:41;4.47;;;3.67;;
45296;SDS011;31040;51.622;10.420;2022-07-23T10:37:14;3.88;;;3.58;;
45296;SDS011;31040;51.622;10.420;2022-07-23T10:42:58;4.95;;;3.67;;
45296;SDS011;31040;51.622;10.420;2022-07-23T10:45:34;4.20;;;3.90;;
45296;SDS011;31040;51.622;10.420;2022-07-23T10:48:17;7.20;;;3.65;;
45296;SDS011;31040;51.622;10.420;2022-07-23T10:51:06;3.35;;;3.05;;
45296;SDS011;31040;51.622;10.420;2022-07-23T10:59:03;3.60;;;3.30;;
45296;SDS011;31040;51.622;10.420;2022-07-23T11:01:33;3.70;;;3.40;;
45296;SDS011;31040;51.622;10.420;2022-07-23T11:04:01;3.65;;;2.97;;
45296;SDS011;31040;51.622;10.420;2022-07-23T11:17:30;16.08;;;5.43;;
45296;SDS011;31040;51.622;10.420;2022-07-23T11:22:39;5.10;;;3.60;;
45296;SDS011;31040;51.622;10.420;2022-07-23T11:25:07;3.63;;;2.80;;
45296;SDS011;31040;51.622;10.420;2022-07-23T11:30:08;11.15;;;3.20;;
45296;SDS011;31040;51.622;10.420;2022-07-23T11:32:39;3.83;;;2.92;;
45296;SDS011;31040;51.622;10.420;2022-07-23T11:35:23;4.13;;;3.00;;
45296;SDS011;31040;51.622;10.420;2022-07-23T11:37:52;3.40;;;2.58;;
45296;SDS011;31040;51.622;10.420;2022-07-23T11:40:20;4.78;;;3.20;;
45296;SDS011;31040;51.622;10.420;2022-07-23T11:42:55;4.28;;;3.00;;
45296;SDS011;31040;51.622;10.420;2022-07-23T11:45:24;4.90;;;2.65;;
45296;SDS011;31040;51.622;10.420;2022-07-23T11:47:54;3.00;;;2.72;;
45296;SDS011;31040;51.622;10.420;2022-07-23T11:50:23;3.50;;;3.20;;
45296;SDS011;31040;51.622;10.420;2022-07-23T11:52:53;3.63;;;3.13;;
45296;SDS011;31040;51.622;10.420;2022-07-23T11:55:22;2.67;;;2.45;;
45296;SDS011;31040;51.622;10.420;2022-07-23T11:57:51;3.35;;;2.53;;
45296;SDS011;31040;51.622;10.420;2022-07-23T12:00:23;3.53;;;2.55;;
45296;SDS011;31040;51.622;10.420;2022-07-23T12:02:55;4.82;;;2.53;;
45296;SDS011;31040;51.622;10.420;2022-07-23T12:05:26;3.25;;;2.22;;
45296;SDS011;31040;51.622;10.420;2022-07-23T12:07:56;3.35;;;2.80;;
45296;SDS011;31040;51.622;10.420;2022-07-23T12:10:28;2.83;;;2.53;;
45296;SDS011;31040;51.622;10.420;2022-07-23T12:15:29;4.95;;;3.00;;
45296;SDS011;31040;51.622;10.420;2022-07-23T12:20:31;4.70;;;2.65;;
45296;SDS011;31040;51.622;10.420;2022-07-23T12:23:02;2.88;;;2.63;;
45296;SDS011;31040;51.622;10.420;2022-07-23T12:25:30;3.13;;;2.78;;
45296;SDS011;31040;51.622;10.420;2022-07-23T12:28:06;3.10;;;2.80;;
45296;SDS011;31040;51.622;10.420;2022-07-23T12:30:34;3.53;;;2.80;;
45296;SDS011;31040;51.622;10.420;2022-07-23T12:33:04;2.95;;;2.47;;
45296;SDS011;31040;51.622;10.420;2022-07-23T12:35:33;3.55;;;2.40;;
45296;SDS011;31040;51.622;10.420;2022-07-23T12:38:04;3.00;;;2.75;;
45296;SDS011;31040;51.622;10.420;2022-07-23T12:40:36;3.00;;;2.80;;
45296;SDS011;31040;51.622;10.420;2022-07-23T12:43:05;3.42;;;3.08;;
45296;SDS011;31040;51.622;10.420;2022-07-23T12:45:47;4.07;;;3.30;;
45296;SDS011;31040;51.622;10.420;2022-07-23T12:48:20;2.72;;;2.53;;
45296;SDS011;31040;51.622;10.420;2022-07-23T12:50:55;3.40;;;3.00;;
45296;SDS011;31040;51.622;10.420;2022-07-23T12:53:24;2.67;;;2.33;;
45296;SDS011;31040;51.622;10.420;2022-07-23T13:01:08;2.75;;;2.25;;
45296;SDS011;31040;51.622;10.420;2022-07-23T13:03:38;2.95;;;2.50;;
45296;SDS011;31040;51.622;10.420;2022-07-23T13:06:09;5.88;;;2.72;;
45296;SDS011;31040;51.622;10.420;2022-07-23T13:08:38;2.38;;;2.28;;
45296;SDS011;31040;51.622;10.420;2022-07-23T13:11:06;3.00;;;2.78;;
45296;SDS011;31040;51.622;10.420;2022-07-23T13:13:34;4.68;;;3.58;;
45296;SDS011;31040;51.622;10.420;2022-07-23T13:16:02;3.00;;;2.30;;
45296;SDS011;31040;51.622;10.420;2022-07-23T13:18:36;2.75;;;2.30;;
45296;SDS011;31040;51.622;10.420;2022-07-23T13:21:05;3.25;;;2.42;;
45296;SDS011;31040;51.622;10.420;2022-07-23T13:23:36;2.55;;;2.35;;
45296;SDS011;31040;51.622;10.420;2022-07-23T13:26:04;2.72;;;2.42;;
45296;SDS011;31040;51.622;10.420;2022-07-23T13:28:31;2.35;;;2.15;;
45296;SDS011;31040;51.622;10.420;2022-07-23T13:30:59;2.72;;;2.28;;
45296;SDS011;31040;51.622;10.420;2022-07-23T13:33:27;2.63;;;2.42;;
45296;SDS011;31040;51.622;10.420;2022-07-23T13:35:55;3.15;;;2.08;;
45296;SDS011;31040;51.622;10.420;2022-07-23T13:38:23;2.67;;;2.25;;
45296;SDS011;31040;51.622;10.420;2022-07-23T13:40:51;2.03;;;1.92;;
45296;SDS011;31040;51.622;10.420;2022-07-23T13:43:20;2.63;;;2.50;;
45296;SDS011;31040;51.622;10.420;2022-07-23T13:45:49;4.38;;;2.00;;
45296;SDS011;31040;51.622;10.420;2022-07-23T13:48:18;3.85;;;2.40;;
45296;SDS011;31040;51.622;10.420;2022-07-23T13:50:47;4.10;;;2.33;;
45296;SDS011;31040;51.622;10.420;2022-07-23T13:53:18;2.83;;;2.30;;
45296;SDS011;31040;51.622;10.420;2022-07-23T13:55:48;2.25;;;2.05;;
45296;SDS011;31040;51.622;10.420;2022-07-23T13:58:15;2.30;;;2.00;;
45296;SDS011;31040;51.622;10.420;2022-07-23T14:00:50;3.08;;;2.00;;
45296;SDS011;31040;51.622;10.420;2022-07-23T14:03:19;2.08;;;1.95;;
45296;SDS011;31040;51.622;10.420;2022-07-23T14:05:50;4.63;;;2.22;;
45296;SDS011;31040;51.622;10.420;2022-07-23T14:08:21;2.40;;;2.13;;
45296;SDS011;31040;51.622;10.420;2022-07-23T14:10:49;2.60;;;2.40;;
45296;SDS011;31040;51.622;10.420;2022-07-23T14:13:16;2.55;;;2.10;;
45296;SDS011;31040;51.622;10.420;2022-07-23T14:15:47;2.58;;;2.25;;
45296;SDS011;31040;51.622;10.420;2022-07-23T14:18:16;2.97;;;2.67;;
45296;SDS011;31040;51.622;10.420;2022-07-23T14:20:44;2.38;;;2.17;;
45296;SDS011;31040;51.622;10.420;2022-07-23T14:23:12;2.60;;;2.08;;
45296;SDS011;31040;51.622;10.420;2022-07-23T14:25:40;3.50;;;1.77;;
45296;SDS011;31040;51.622;10.420;2022-07-23T14:28:08;2.67;;;1.90;;
45296;SDS011;31040;51.622;10.420;2022-07-23T14:30:36;2.55;;;2.33;;
45296;SDS011;31040;51.622;10.420;2022-07-23T14:33:04;2.35;;;2.20;;
45296;SDS011;31040;51.622;10.420;2022-07-23T14:35:31;2.63;;;2.15;;
45296;SDS011;31040;51.622;10.420;2022-07-23T14:37:59;2.00;;;1.90;;
45296;SDS011;31040;51.622;10.420;2022-07-23T14:40:27;2.83;;;1.95;;
45296;SDS011;31040;51.622;10.420;2022-07-23T14:42:55;1.95;;;1.85;;
45296;SDS011;31040;51.622;10.420;2022-07-23T14:45:22;2.15;;;1.80;;
45296;SDS011;31040;51.622;10.420;2022-07-23T14:47:53;1.90;;;1.67;;
45296;SDS011;31040;51.622;10.420;2022-07-23T14:50:20;2.40;;;2.03;;
45296;SDS011;31040;51.622;10.420;2022-07-23T14:52:48;2.13;;;1.90;;
45296;SDS011;31040;51.622;10.420;2022-07-23T14:55:16;1.92;;;1.70;;
45296;SDS011;31040;51.622;10.420;2022-07-23T14:57:44;2.55;;;2.00;;
45296;SDS011;31040;51.622;10.420;2022-07-23T15:00:13;2.05;;;1.65;;
45296;SDS011;31040;51.622;10.420;2022-07-23T15:02:41;2.15;;;1.80;;
45296;SDS011;31040;51.622;10.420;2022-07-23T15:05:19;2.22;;;2.00;;
45296;SDS011;31040;51.622;10.420;2022-07-23T15:07:46;2.03;;;1.80;;
45296;SDS011;31040;51.622;10.420;2022-07-23T15:10:14;1.70;;;1.60;;
45296;SDS011;31040;51.622;10.420;2022-07-23T15:12:47;3.00;;;2.70;;
45296;SDS011;31040;51.622;10.420;2022-07-23T15:15:15;2.03;;;1.88;;
45296;SDS011;31040;51.622;10.420;2022-07-23T15:17:43;2.05;;;1.80;;
45296;SDS011;31040;51.622;10.420;2022-07-23T15:20:10;2.00;;;1.80;;
45296;SDS011;31040;51.622;10.420;2022-07-23T15:22:43;2.40;;;1.60;;
45296;SDS011;31040;51.622;10.420;2022-07-23T15:25:11;2.83;;;1.70;;